Current Weather

Easton/Newnam Fld

Easton, Maryland (KESN)

Report from: Wednesday, May 29, 2024 4:25 AM EDT
Current time: Wednesday, May 29, 2024 4:52 AM EDT

Nearby weather – Weather history – Daily summaries
Weather forecast

Temperature16.5°C (61.7°F)
Dew point13.6°C (56.5°F)
Winds 3 kts (1.5 m/s, 3.5 mph) West-Northwest (290°)
Visibility10 mi. (16.1 km)
Clouds Sky clear
Altimeter29.91 in.Hg (1013 mB)
Relative humidity83 %
Density altitude406 ft. (124 m)
Remarks Fully automated report
Automated weather observing station with precipitation discriminator
Flight conditions Visual Meteorological Conditions
Raw dataKESN 290825Z AUTO 29003KT 10SM CLR 16/14 A2991 RMK AO2 T01650136
An error has occurred. This application may no longer respond until reloaded. Reload 🗙